createdAt,value
2023-02-26T00:00:15.958Z,-2.49
2023-02-26T00:02:46.244Z,-2.48
2023-02-26T00:05:15.343Z,-2.46
2023-02-26T00:07:44.260Z,-2.42
2023-02-26T00:10:14.635Z,-2.35
2023-02-26T00:12:45.661Z,-2.30
2023-02-26T00:15:15.506Z,-2.21
2023-02-26T00:17:50.306Z,-2.13
2023-02-26T00:20:20.389Z,-2.00
2023-02-26T00:22:49.096Z,-1.98
2023-02-26T00:25:17.252Z,-1.96
2023-02-26T00:27:47.898Z,-1.99
2023-02-26T00:30:16.849Z,-1.95
2023-02-26T00:32:48.148Z,-2.02
2023-02-26T00:35:18.179Z,-2.08
2023-02-26T00:38:01.342Z,-2.06
2023-02-26T00:40:37.142Z,-1.98
2023-02-26T00:43:09.369Z,-1.89
2023-02-26T00:45:41.536Z,-1.93
2023-02-26T00:48:37.107Z,-2.05
2023-02-26T00:51:13.092Z,-2.17
2023-02-26T00:53:48.054Z,-2.29
2023-02-26T00:56:16.475Z,-2.35
2023-02-26T00:58:46.434Z,-2.43
2023-02-26T01:01:14.793Z,-2.52
2023-02-26T01:03:43.403Z,-2.57
2023-02-26T01:06:14.305Z,-2.62
2023-02-26T01:08:51.347Z,-2.62
2023-02-26T01:11:20.470Z,-2.46
2023-02-26T01:13:50.990Z,-2.44
2023-02-26T01:16:25.372Z,-2.38
2023-02-26T01:19:00.609Z,-2.42
2023-02-26T01:21:37.683Z,-2.42
2023-02-26T01:24:11.441Z,-2.44
2023-02-26T01:26:40.653Z,-2.44
2023-02-26T01:29:11.088Z,-2.46
2023-02-26T01:31:44.549Z,-2.48
2023-02-26T01:34:19.374Z,-2.49
2023-02-26T01:36:55.285Z,-2.48
2023-02-26T01:39:31.283Z,-2.45
2023-02-26T01:42:07.255Z,-2.39
2023-02-26T01:44:43.082Z,-2.35
2023-02-26T01:47:20.860Z,-2.34
2023-02-26T01:49:49.528Z,-2.33
2023-02-26T01:53:05.671Z,-2.34
2023-02-26T01:55:33.976Z,-2.34
2023-02-26T01:58:03.547Z,-2.35
2023-02-26T02:00:33.160Z,-2.38
2023-02-26T02:03:01.999Z,-2.36
2023-02-26T02:05:34.314Z,-2.35
2023-02-26T02:08:02.688Z,-2.29
2023-02-26T02:10:31.523Z,-2.27
2023-02-26T02:13:06.920Z,-2.27
2023-02-26T02:15:45.514Z,-2.26
2023-02-26T02:18:22.250Z,-2.22
2023-02-26T02:21:05.815Z,-2.26
2023-02-26T02:23:41.017Z,-2.30
2023-02-26T02:26:39.945Z,-2.34
2023-02-26T02:29:26.132Z,-2.38
2023-02-26T02:32:02.090Z,-2.40
2023-02-26T02:34:38.209Z,-2.47
2023-02-26T02:37:15.587Z,-2.45
2023-02-26T02:39:48.829Z,-2.41
2023-02-26T02:42:26.532Z,-2.36
2023-02-26T02:45:00.179Z,-2.38
2023-02-26T02:47:33.816Z,-2.25
2023-02-26T02:50:09.073Z,-2.12
2023-02-26T02:52:47.378Z,-2.18
2023-02-26T02:55:23.981Z,-2.18
2023-02-26T02:57:57.107Z,-2.26
2023-02-26T03:00:27.061Z,-2.34
2023-02-26T03:03:06.665Z,-2.47
2023-02-26T03:05:34.968Z,-2.50
2023-02-26T03:08:07.771Z,-2.41
2023-02-26T03:10:36.298Z,-2.41
2023-02-26T03:13:05.732Z,-2.34
2023-02-26T03:15:41.278Z,-2.24
2023-02-26T03:18:24.444Z,-2.32
2023-02-26T03:20:59.169Z,-2.39
2023-02-26T03:23:37.964Z,-2.46
2023-02-26T03:26:13.242Z,-2.19
2023-02-26T03:28:50.162Z,-2.21
2023-02-26T03:31:25.469Z,-2.16
2023-02-26T03:34:00.394Z,-2.26
2023-02-26T03:36:34.706Z,-2.23
2023-02-26T03:39:28.288Z,-2.28
2023-02-26T03:42:03.236Z,-2.39
2023-02-26T03:44:43.723Z,-2.23
2023-02-26T03:47:16.239Z,-2.37
2023-02-26T03:49:51.527Z,-2.39
2023-02-26T03:52:23.862Z,-2.50
2023-02-26T03:55:22.524Z,-2.44
2023-02-26T03:58:17.879Z,-2.41
2023-02-26T04:01:08.900Z,-2.18
2023-02-26T04:03:42.937Z,-2.23
2023-02-26T04:06:13.599Z,-2.11
2023-02-26T04:08:43.790Z,-2.13
2023-02-26T04:11:17.637Z,-1.99
2023-02-26T04:13:46.784Z,-1.95
2023-02-26T04:16:15.695Z,-1.88
2023-02-26T04:18:43.781Z,-1.78
2023-02-26T04:21:14.428Z,-1.82
2023-02-26T04:23:42.842Z,-1.87
2023-02-26T04:26:13.442Z,-1.92
2023-02-26T04:28:43.256Z,-1.89
2023-02-26T04:31:11.857Z,-1.95
2023-02-26T04:33:41.503Z,-1.88
2023-02-26T04:36:10.832Z,-1.89
2023-02-26T04:38:40.748Z,-1.71
2023-02-26T04:41:09.267Z,-1.61
2023-02-26T04:43:37.813Z,-1.63
2023-02-26T04:46:20.398Z,-1.48
2023-02-26T04:48:49.016Z,-1.63
2023-02-26T04:51:19.082Z,-1.67
2023-02-26T04:53:48.996Z,-1.69
2023-02-26T04:56:17.408Z,-1.64
2023-02-26T04:58:46.763Z,-1.53
2023-02-26T05:01:20.102Z,-1.63
2023-02-26T05:03:49.898Z,-1.71
2023-02-26T05:06:18.261Z,-1.76
2023-02-26T05:08:48.016Z,-1.70
2023-02-26T05:11:16.289Z,-1.68
2023-02-26T05:13:46.195Z,-1.63
2023-02-26T05:16:14.583Z,-1.65
2023-02-26T05:18:43.422Z,-1.72
2023-02-26T05:21:11.817Z,-1.88
2023-02-26T05:23:40.317Z,-2.01
2023-02-26T05:26:10.200Z,-2.12
2023-02-26T05:28:38.672Z,-2.25
2023-02-26T05:31:07.466Z,-2.08
2023-02-26T05:33:36.723Z,-2.11
2023-02-26T05:36:07.037Z,-2.21
2023-02-26T05:38:35.872Z,-2.28
2023-02-26T05:41:04.440Z,-2.25
2023-02-26T05:43:34.603Z,-2.33
2023-02-26T05:46:02.800Z,-2.41
2023-02-26T05:48:31.221Z,-2.34
2023-02-26T05:50:59.432Z,-2.33
2023-02-26T05:53:27.662Z,-2.06
2023-02-26T05:55:55.836Z,-2.06
2023-02-26T05:58:25.993Z,-2.11
2023-02-26T06:00:55.506Z,-2.13
2023-02-26T06:03:23.814Z,-2.00
2023-02-26T06:05:51.956Z,-2.00
2023-02-26T06:08:20.303Z,-1.96
2023-02-26T06:10:48.688Z,-1.78
2023-02-26T06:13:16.807Z,-1.90
2023-02-26T06:15:44.947Z,-1.84
2023-02-26T06:18:14.431Z,-1.71
2023-02-26T06:20:42.622Z,-1.84
2023-02-26T06:23:11.288Z,-1.82
2023-02-26T06:25:39.963Z,-1.89
2023-02-26T06:28:09.611Z,-1.78
2023-02-26T06:30:38.200Z,-1.88
2023-02-26T06:33:07.833Z,-1.96
2023-02-26T06:35:37.503Z,-1.93
2023-02-26T06:38:05.429Z,-1.89
2023-02-26T06:40:33.904Z,-1.90
2023-02-26T06:43:02.178Z,-2.01
2023-02-26T06:45:30.495Z,-1.95
2023-02-26T06:47:59.974Z,-1.87
2023-02-26T06:50:28.426Z,-1.89
2023-02-26T06:52:58.275Z,-1.86
2023-02-26T06:55:27.558Z,-1.76
2023-02-26T06:57:56.002Z,-1.63
2023-02-26T07:00:26.550Z,-1.60
2023-02-26T07:02:54.828Z,-1.53
2023-02-26T07:05:23.405Z,-1.50
2023-02-26T07:07:51.628Z,-1.30
2023-02-26T07:10:25.008Z,-1.12
2023-02-26T07:12:53.615Z,-0.90
2023-02-26T07:15:21.690Z,-0.98
2023-02-26T07:17:49.902Z,-0.87
2023-02-26T07:20:18.356Z,-0.85
2023-02-26T07:22:47.556Z,-0.62
2023-02-26T07:25:16.381Z,-0.46
2023-02-26T07:27:46.152Z,-0.39
2023-02-26T07:30:15.665Z,-0.41
2023-02-26T07:32:44.343Z,-0.23
2023-02-26T07:35:14.396Z,-0.31
2023-02-26T07:37:42.523Z,-0.28
2023-02-26T07:40:12.131Z,-0.36
2023-02-26T07:42:40.165Z,-0.31
2023-02-26T07:45:11.654Z,-0.26
2023-02-26T07:47:39.889Z,-0.44
2023-02-26T07:50:09.107Z,-0.31
2023-02-26T07:52:37.526Z,-0.42
2023-02-26T07:55:06.547Z,-0.29
2023-02-26T07:57:34.696Z,-0.06
2023-02-26T08:00:04.665Z,-0.02
2023-02-26T08:02:42.038Z,-0.08
2023-02-26T08:05:11.202Z,0.02
2023-02-26T08:07:39.613Z,0.13
2023-02-26T08:10:08.409Z,0.14
2023-02-26T08:12:39.003Z,0.29
2023-02-26T08:15:08.521Z,0.20
2023-02-26T08:17:36.971Z,0.14
2023-02-26T08:20:08.271Z,0.34
2023-02-26T08:22:36.607Z,0.45
2023-02-26T08:25:05.113Z,0.41
2023-02-26T08:27:33.718Z,0.46
2023-02-26T08:30:01.942Z,0.42
2023-02-26T08:32:30.396Z,0.30
2023-02-26T08:34:58.612Z,0.24
2023-02-26T08:37:28.942Z,0.19
2023-02-26T08:39:57.591Z,0.35
2023-02-26T08:42:25.872Z,0.57
2023-02-26T08:44:54.681Z,0.82
2023-02-26T08:47:28.817Z,0.82
2023-02-26T08:49:59.124Z,0.51
2023-02-26T08:52:30.473Z,0.79
2023-02-26T08:55:00.016Z,0.86
2023-02-26T08:57:28.204Z,1.05
2023-02-26T08:59:56.353Z,1.03
2023-02-26T09:02:24.938Z,1.08
2023-02-26T09:04:53.326Z,1.20
2023-02-26T09:07:22.112Z,1.19
2023-02-26T09:09:51.854Z,0.95
2023-02-26T09:12:20.168Z,1.24
2023-02-26T09:14:50.806Z,1.48
2023-02-26T09:17:22.547Z,1.42
2023-02-26T09:19:51.099Z,1.18
2023-02-26T09:22:20.496Z,1.22
2023-02-26T09:24:49.210Z,1.36
2023-02-26T09:27:20.079Z,1.84
2023-02-26T09:29:48.676Z,1.65
2023-02-26T09:32:17.175Z,1.77
2023-02-26T09:34:45.730Z,1.96
2023-02-26T09:37:14.024Z,2.02
2023-02-26T09:39:42.676Z,2.09
2023-02-26T09:42:25.504Z,2.18
2023-02-26T09:45:00.307Z,2.15
2023-02-26T09:47:40.272Z,2.58
2023-02-26T09:50:18.194Z,2.58
2023-02-26T09:52:50.508Z,3.12
2023-02-26T09:55:28.002Z,2.76
2023-02-26T09:58:01.465Z,2.39
2023-02-26T10:00:37.644Z,2.46
2023-02-26T10:03:22.769Z,2.70
2023-02-26T10:06:15.154Z,2.53
2023-02-26T10:08:52.725Z,2.63
2023-02-26T10:11:31.533Z,2.44
2023-02-26T10:14:07.433Z,2.38
2023-02-26T10:16:41.426Z,2.57
2023-02-26T10:19:14.201Z,2.39
2023-02-26T10:21:48.722Z,2.52
2023-02-26T10:24:22.462Z,2.75
2023-02-26T10:26:58.834Z,2.67
2023-02-26T10:29:35.814Z,2.24
2023-02-26T10:32:20.389Z,2.28
2023-02-26T10:34:53.868Z,2.65
2023-02-26T10:37:34.678Z,2.79
2023-02-26T10:40:10.912Z,2.98
2023-02-26T10:42:44.414Z,2.77
2023-02-26T10:45:38.236Z,2.76
2023-02-26T10:48:19.672Z,2.60
2023-02-26T10:50:51.452Z,2.65
2023-02-26T10:53:22.683Z,2.91
2023-02-26T10:56:06.473Z,2.75
2023-02-26T10:58:35.005Z,2.54
2023-02-26T11:01:12.867Z,2.64
2023-02-26T11:03:44.209Z,2.90
2023-02-26T11:06:19.773Z,2.96
2023-02-26T11:08:51.900Z,3.16
2023-02-26T11:11:51.908Z,3.12
2023-02-26T11:14:21.925Z,3.52
2023-02-26T11:16:58.803Z,3.65
2023-02-26T11:19:31.555Z,3.86
2023-02-26T11:22:03.498Z,4.03
2023-02-26T11:24:36.490Z,3.78
2023-02-26T11:27:08.930Z,3.83
2023-02-26T11:29:41.334Z,4.12
2023-02-26T11:32:18.784Z,4.34
2023-02-26T11:34:49.202Z,4.30
2023-02-26T11:37:21.021Z,4.64
2023-02-26T11:39:54.947Z,4.46
2023-02-26T11:42:23.384Z,4.32
2023-02-26T11:44:52.801Z,4.03
2023-02-26T11:47:26.088Z,3.73
2023-02-26T11:49:57.472Z,3.96
2023-02-26T11:52:30.766Z,4.03
2023-02-26T11:55:04.235Z,3.92
2023-02-26T11:57:34.707Z,3.75
2023-02-26T12:00:20.575Z,3.50
2023-02-26T12:02:51.384Z,3.64
2023-02-26T12:05:20.652Z,3.81
2023-02-26T12:07:50.687Z,3.98
2023-02-26T12:10:26.901Z,3.76
2023-02-26T12:13:11.183Z,3.82
2023-02-26T12:15:50.863Z,3.55
2023-02-26T12:18:45.821Z,3.67
2023-02-26T12:21:30.204Z,3.72
2023-02-26T12:24:21.145Z,4.03
2023-02-26T12:27:01.017Z,4.05
2023-02-26T12:29:56.684Z,3.79
2023-02-26T12:32:36.067Z,3.82
2023-02-26T12:35:37.757Z,4.15
2023-02-26T12:38:17.381Z,4.43
2023-02-26T12:41:03.159Z,4.39
2023-02-26T12:43:44.390Z,4.29
2023-02-26T12:46:23.966Z,4.23
2023-02-26T12:49:11.257Z,4.23
2023-02-26T12:51:55.625Z,3.90
2023-02-26T12:54:44.267Z,4.01
2023-02-26T12:57:56.996Z,4.10
2023-02-26T13:00:57.358Z,3.92
2023-02-26T13:03:43.046Z,3.92
2023-02-26T13:06:52.276Z,3.74
2023-02-26T13:09:33.355Z,3.98
2023-02-26T13:12:17.276Z,3.91
2023-02-26T13:14:56.166Z,3.93
2023-02-26T13:17:33.333Z,4.02
2023-02-26T13:20:05.658Z,4.04
2023-02-26T13:22:40.672Z,3.96
2023-02-26T13:25:21.598Z,3.64
2023-02-26T13:27:52.634Z,3.69
2023-02-26T13:30:28.254Z,3.94
2023-02-26T13:32:59.884Z,4.00
2023-02-26T13:35:34.580Z,3.94
2023-02-26T13:38:16.348Z,3.88
2023-02-26T13:40:58.396Z,3.91
2023-02-26T13:43:39.875Z,3.79
2023-02-26T13:46:25.114Z,3.79
2023-02-26T13:49:02.513Z,3.77
2023-02-26T13:51:36.817Z,3.63
2023-02-26T13:54:12.564Z,3.51
2023-02-26T13:56:55.679Z,3.42
2023-02-26T13:59:36.533Z,3.57
2023-02-26T14:02:43.028Z,3.55
2023-02-26T14:05:54.352Z,3.35
2023-02-26T14:08:28.354Z,3.09
2023-02-26T14:11:38.229Z,3.13
2023-02-26T14:14:15.513Z,3.01
2023-02-26T14:16:47.158Z,2.80
2023-02-26T14:19:24.727Z,2.86
2023-02-26T14:21:57.640Z,2.98
2023-02-26T14:24:37.022Z,3.12
2023-02-26T14:27:25.002Z,2.91
2023-02-26T14:30:05.497Z,3.01
2023-02-26T14:32:34.981Z,3.07
2023-02-26T14:35:10.321Z,3.24
2023-02-26T14:37:42.413Z,2.95
2023-02-26T14:40:18.587Z,3.08
2023-02-26T14:42:52.438Z,3.11
2023-02-26T14:45:30.272Z,3.00
2023-02-26T14:48:03.681Z,2.93
2023-02-26T14:50:43.529Z,2.79
2023-02-26T14:53:38.566Z,2.88
2023-02-26T14:56:13.014Z,3.05
2023-02-26T14:59:10.028Z,3.33
2023-02-26T15:01:48.445Z,3.43
2023-02-26T15:04:35.671Z,3.35
2023-02-26T15:07:27.534Z,3.32
2023-02-26T15:10:12.517Z,3.27
2023-02-26T15:12:55.812Z,3.16
2023-02-26T15:15:36.247Z,3.43
2023-02-26T15:18:16.191Z,3.26
2023-02-26T15:20:53.498Z,3.00
2023-02-26T15:23:35.485Z,3.26
2023-02-26T15:26:05.873Z,3.28
2023-02-26T15:28:38.256Z,3.25
2023-02-26T15:31:13.591Z,3.43
2023-02-26T15:33:42.605Z,3.69
2023-02-26T15:36:17.764Z,3.77
2023-02-26T15:38:52.301Z,3.64
2023-02-26T15:41:21.653Z,3.72
2023-02-26T15:43:53.602Z,3.70
2023-02-26T15:46:30.069Z,3.53
2023-02-26T15:49:02.472Z,3.18
2023-02-26T15:51:31.571Z,3.09
2023-02-26T15:54:03.261Z,2.94
2023-02-26T15:56:36.591Z,2.78
2023-02-26T15:59:09.404Z,2.87
2023-02-26T16:01:49.638Z,2.71
2023-02-26T16:04:24.965Z,2.57
2023-02-26T16:06:57.309Z,2.55
2023-02-26T16:09:29.150Z,2.51
2023-02-26T16:12:00.783Z,2.64
2023-02-26T16:14:35.508Z,2.58
2023-02-26T16:17:07.647Z,2.61
2023-02-26T16:19:41.480Z,2.54
2023-02-26T16:22:22.363Z,2.32
2023-02-26T16:25:01.591Z,2.31
2023-02-26T16:27:32.426Z,2.26
2023-02-26T16:30:03.213Z,2.21
2023-02-26T16:32:36.608Z,2.33
2023-02-26T16:35:12.440Z,2.31
2023-02-26T16:37:45.871Z,2.29
2023-02-26T16:40:21.306Z,2.28
2023-02-26T16:42:56.193Z,2.17
2023-02-26T16:45:46.026Z,2.07
2023-02-26T16:48:20.400Z,2.07
2023-02-26T16:50:54.439Z,2.08
2023-02-26T16:53:25.500Z,2.10
2023-02-26T16:55:58.099Z,2.14
2023-02-26T16:58:27.079Z,2.28
2023-02-26T17:01:08.424Z,2.15
2023-02-26T17:03:39.361Z,2.12
2023-02-26T17:06:12.079Z,2.17
2023-02-26T17:08:49.159Z,2.10
2023-02-26T17:11:25.240Z,2.18
2023-02-26T17:14:14.066Z,2.02
2023-02-26T17:16:42.569Z,1.98
2023-02-26T17:19:12.310Z,1.99
2023-02-26T17:21:46.322Z,2.03
2023-02-26T17:24:18.726Z,2.09
2023-02-26T17:26:50.136Z,2.10
2023-02-26T17:29:24.521Z,1.99
2023-02-26T17:31:53.227Z,1.96
2023-02-26T17:34:23.599Z,1.92
2023-02-26T17:36:51.801Z,1.82
2023-02-26T17:39:19.910Z,1.75
2023-02-26T17:41:49.261Z,1.68
2023-02-26T17:44:17.620Z,1.75
2023-02-26T17:46:45.847Z,1.58
2023-02-26T17:49:15.515Z,1.56
2023-02-26T17:51:49.130Z,1.60
2023-02-26T17:54:18.304Z,1.51
2023-02-26T17:56:49.628Z,1.55
2023-02-26T17:59:19.959Z,1.51
2023-02-26T18:01:49.704Z,1.55
2023-02-26T18:04:18.462Z,1.41
2023-02-26T18:06:48.886Z,1.50
2023-02-26T18:09:17.781Z,1.53
2023-02-26T18:11:46.740Z,1.53
2023-02-26T18:14:15.209Z,1.49
2023-02-26T18:16:45.181Z,1.36
2023-02-26T18:19:15.503Z,1.32
2023-02-26T18:21:44.157Z,1.42
2023-02-26T18:24:13.898Z,1.45
2023-02-26T18:26:42.133Z,1.46
2023-02-26T18:29:12.665Z,1.53
2023-02-26T18:31:41.268Z,1.44
2023-02-26T18:34:10.298Z,1.47
2023-02-26T18:36:39.780Z,1.50
2023-02-26T18:39:10.441Z,1.48
2023-02-26T18:41:40.868Z,1.41
2023-02-26T18:44:09.237Z,1.35
2023-02-26T18:46:42.727Z,1.35
2023-02-26T18:49:18.101Z,1.24
2023-02-26T18:51:48.040Z,1.20
2023-02-26T18:54:16.776Z,1.26
2023-02-26T18:56:48.632Z,1.13
2023-02-26T18:59:17.340Z,1.05
2023-02-26T19:01:46.395Z,0.78
2023-02-26T19:04:14.948Z,0.74
2023-02-26T19:06:43.511Z,0.58
2023-02-26T19:09:12.230Z,0.61
2023-02-26T19:11:40.512Z,0.69
2023-02-26T19:14:10.530Z,0.54
2023-02-26T19:16:41.411Z,0.48
2023-02-26T19:19:12.003Z,0.38
2023-02-26T19:21:42.201Z,0.28
2023-02-26T19:24:12.458Z,0.25
2023-02-26T19:26:42.178Z,0.17
2023-02-26T19:29:15.992Z,0.26
2023-02-26T19:31:45.409Z,0.19
2023-02-26T19:34:14.046Z,0.18
2023-02-26T19:36:48.277Z,0.22
2023-02-26T19:39:18.808Z,0.12
2023-02-26T19:41:49.024Z,0.06
2023-02-26T19:44:20.214Z,-0.05
2023-02-26T19:46:48.712Z,-0.17
2023-02-26T19:49:18.344Z,-0.24
2023-02-26T19:51:46.916Z,-0.41
2023-02-26T19:54:15.216Z,-0.30
2023-02-26T19:56:44.444Z,-0.34
2023-02-26T19:59:13.723Z,-0.38
2023-02-26T20:01:43.992Z,-0.59
2023-02-26T20:04:12.261Z,-0.71
2023-02-26T20:06:42.864Z,-0.83
2023-02-26T20:09:12.243Z,-0.87
2023-02-26T20:11:41.264Z,-0.75
2023-02-26T20:14:10.144Z,-0.56
2023-02-26T20:16:38.571Z,-0.33
2023-02-26T20:19:08.649Z,-0.37
2023-02-26T20:21:37.165Z,-0.31
2023-02-26T20:24:06.291Z,-0.53
2023-02-26T20:26:37.258Z,-0.48
2023-02-26T20:29:05.900Z,-0.45
2023-02-26T20:31:34.242Z,-0.55
2023-02-26T20:34:02.683Z,-0.63
2023-02-26T20:36:32.508Z,-0.58
2023-02-26T20:39:05.161Z,-0.53
2023-02-26T20:41:36.399Z,-0.53
2023-02-26T20:44:06.048Z,-0.60
2023-02-26T20:46:35.925Z,-0.60
2023-02-26T20:49:04.762Z,-0.62
2023-02-26T20:51:35.167Z,-0.64
2023-02-26T20:54:04.956Z,-0.82
2023-02-26T20:56:34.856Z,-0.81
2023-02-26T20:59:03.250Z,-0.74
2023-02-26T21:01:35.748Z,-0.67
2023-02-26T21:04:05.472Z,-0.61
2023-02-26T21:06:36.146Z,-0.62
2023-02-26T21:09:09.724Z,-0.61
2023-02-26T21:11:39.887Z,-0.63
2023-02-26T21:14:09.754Z,-0.62
2023-02-26T21:16:40.677Z,-0.76
2023-02-26T21:19:10.668Z,-0.83
2023-02-26T21:21:40.292Z,-0.93
2023-02-26T21:24:09.705Z,-0.95
2023-02-26T21:26:38.061Z,-0.97
2023-02-26T21:29:07.484Z,-0.89
2023-02-26T21:31:35.949Z,-0.99
2023-02-26T21:34:23.596Z,-0.94
2023-02-26T21:36:54.914Z,-0.98
2023-02-26T21:39:23.570Z,-1.03
2023-02-26T21:41:51.742Z,-0.90
2023-02-26T21:44:20.371Z,-0.90
2023-02-26T21:46:48.980Z,-0.85
2023-02-26T21:49:17.366Z,-0.65
2023-02-26T21:51:45.751Z,-0.54
2023-02-26T21:54:15.359Z,-0.56
2023-02-26T21:56:44.949Z,-0.53
2023-02-26T21:59:13.116Z,-0.53
2023-02-26T22:01:42.145Z,-0.52
2023-02-26T22:04:10.573Z,-0.65
2023-02-26T22:06:39.120Z,-0.83
2023-02-26T22:09:08.994Z,-1.02
2023-02-26T22:11:38.538Z,-1.15
2023-02-26T22:14:07.523Z,-1.05
2023-02-26T22:16:35.842Z,-1.12
2023-02-26T22:19:04.545Z,-1.26
2023-02-26T22:21:35.178Z,-1.39
2023-02-26T22:24:05.402Z,-1.49
2023-02-26T22:26:33.707Z,-1.23
2023-02-26T22:29:03.705Z,-1.12
2023-02-26T22:31:32.963Z,-1.19
2023-02-26T22:34:01.523Z,-1.19
2023-02-26T22:36:31.349Z,-1.23
2023-02-26T22:38:59.894Z,-1.27
2023-02-26T22:41:30.021Z,-1.22
2023-02-26T22:43:58.378Z,-1.24
2023-02-26T22:46:29.279Z,-1.28
2023-02-26T22:48:58.267Z,-1.25
2023-02-26T22:51:28.495Z,-1.39
2023-02-26T22:53:57.659Z,-1.45
2023-02-26T22:56:26.698Z,-1.53
2023-02-26T22:58:57.333Z,-1.62
2023-02-26T23:01:25.861Z,-1.74
2023-02-26T23:03:55.708Z,-1.75
2023-02-26T23:06:24.103Z,-1.64
2023-02-26T23:08:52.618Z,-1.40
2023-02-26T23:11:21.323Z,-1.29
2023-02-26T23:13:49.594Z,-1.23
2023-02-26T23:16:17.948Z,-1.31
2023-02-26T23:18:48.012Z,-1.45
2023-02-26T23:21:18.036Z,-1.42
2023-02-26T23:23:46.694Z,-1.50
2023-02-26T23:26:14.843Z,-1.54
2023-02-26T23:28:43.012Z,-1.66
2023-02-26T23:31:11.290Z,-1.72
2023-02-26T23:33:39.616Z,-1.86
2023-02-26T23:36:08.611Z,-1.82
2023-02-26T23:38:38.280Z,-1.84
2023-02-26T23:41:06.626Z,-1.88
2023-02-26T23:43:35.200Z,-1.65
2023-02-26T23:46:03.932Z,-1.77
2023-02-26T23:48:32.120Z,-1.91
2023-02-26T23:51:00.728Z,-1.99
2023-02-26T23:53:29.269Z,-2.13
2023-02-26T23:55:59.542Z,-2.17
2023-02-26T23:58:29.343Z,-2.27
